createdAt,value
2022-09-04T00:00:53.709Z,9.661466
2022-09-04T00:01:53.767Z,9.661549
2022-09-04T00:02:53.694Z,9.661486
2022-09-04T00:03:53.781Z,9.661489
2022-09-04T00:04:53.826Z,9.661514
2022-09-04T00:05:54.675Z,9.661525
2022-09-04T00:06:53.667Z,9.661497
2022-09-04T00:07:53.675Z,9.661503
2022-09-04T00:08:53.665Z,9.661543
2022-09-04T00:09:53.672Z,9.661573
2022-09-04T00:10:53.658Z,9.661510
2022-09-04T00:11:53.640Z,9.661483
2022-09-04T00:12:53.646Z,9.661495
2022-09-04T00:13:54.622Z,9.661527
2022-09-04T00:14:53.655Z,9.661544
2022-09-04T00:15:53.607Z,9.661522
2022-09-04T00:16:53.689Z,9.661521
2022-09-04T00:17:53.605Z,9.661572
2022-09-04T00:18:53.610Z,9.661556
2022-09-04T00:19:53.600Z,9.661458
2022-09-04T00:20:53.800Z,9.661516
2022-09-04T00:21:53.577Z,9.661499
2022-09-04T00:22:53.586Z,9.661367
2022-09-04T00:23:53.560Z,9.661564
2022-09-04T00:24:53.563Z,9.661566
2022-09-04T00:25:53.574Z,9.661604
2022-09-04T00:26:53.557Z,9.661449
2022-09-04T00:27:53.541Z,9.661520
2022-09-04T00:28:53.533Z,9.661587
2022-09-04T00:29:53.539Z,9.661536
2022-09-04T00:30:53.549Z,9.661651
2022-09-04T00:31:53.656Z,9.661798
2022-09-04T00:32:53.510Z,9.661610
2022-09-04T00:33:53.487Z,9.661582
2022-09-04T00:34:53.501Z,9.661544
2022-09-04T00:35:53.499Z,9.661502
2022-09-04T00:36:53.506Z,9.661469
2022-09-04T00:37:53.489Z,9.661574
2022-09-04T00:38:53.478Z,9.661428
2022-09-04T00:39:53.498Z,9.661505
2022-09-04T00:40:53.470Z,9.661479
2022-09-04T00:41:53.452Z,9.661468
2022-09-04T00:42:53.477Z,9.661428
2022-09-04T00:43:53.440Z,9.661545
2022-09-04T00:44:53.451Z,9.661525
2022-09-04T00:45:53.491Z,9.661618
2022-09-04T00:46:53.414Z,9.661526
2022-09-04T00:47:53.438Z,9.661566
2022-09-04T00:48:53.411Z,9.661585
2022-09-04T00:49:53.399Z,9.661438
2022-09-04T00:50:53.395Z,9.661453
2022-09-04T00:51:53.401Z,9.661557
2022-09-04T00:52:56.635Z,9.661408
2022-09-04T00:53:53.511Z,9.661530
2022-09-04T00:54:53.381Z,9.661626
2022-09-04T00:55:53.363Z,9.661978
2022-09-04T00:56:53.371Z,9.661819
2022-09-04T00:57:53.376Z,9.661754
2022-09-04T00:58:53.385Z,9.661590
2022-09-04T00:59:53.405Z,9.661871
2022-09-04T01:00:53.391Z,9.661848
2022-09-04T01:01:53.526Z,9.662042
2022-09-04T01:02:53.331Z,9.662073
2022-09-04T01:03:53.323Z,9.661687
2022-09-04T01:04:53.425Z,9.661822
2022-09-04T01:05:53.313Z,9.661692
2022-09-04T01:06:53.310Z,9.661927
2022-09-04T01:07:53.311Z,9.661908
2022-09-04T01:08:56.307Z,9.661663
2022-09-04T01:09:53.310Z,9.661476
2022-09-04T01:10:53.274Z,9.661498
2022-09-04T01:11:53.279Z,9.661604
2022-09-04T01:12:53.266Z,9.661645
2022-09-04T01:13:53.262Z,9.661455
2022-09-04T01:14:53.417Z,9.661474
2022-09-04T01:15:53.347Z,9.661709
2022-09-04T01:16:53.271Z,9.661824
2022-09-04T01:17:53.247Z,9.661645
2022-09-04T01:18:53.229Z,9.661486
2022-09-04T01:19:53.212Z,9.661812
2022-09-04T01:20:53.240Z,9.661753
2022-09-04T01:21:53.217Z,9.662004
2022-09-04T01:22:53.212Z,9.661530
2022-09-04T01:23:53.199Z,9.661765
2022-09-04T01:24:53.216Z,9.661652
2022-09-04T01:25:53.192Z,9.661679
2022-09-04T01:26:53.199Z,9.661503
2022-09-04T01:27:53.183Z,9.661423
2022-09-04T01:28:53.169Z,9.661602
2022-09-04T01:29:53.152Z,9.661667
2022-09-04T01:30:53.147Z,9.661525
2022-09-04T01:31:53.225Z,9.661834
2022-09-04T01:32:53.170Z,9.661681
2022-09-04T01:33:53.152Z,9.661500
2022-09-04T01:34:53.133Z,9.661627
2022-09-04T01:35:53.138Z,9.661546
2022-09-04T01:36:53.114Z,9.661592
2022-09-04T01:37:53.226Z,9.661636
2022-09-04T01:38:53.098Z,9.661592
2022-09-04T01:39:53.136Z,9.661572
2022-09-04T01:40:53.097Z,9.661482
2022-09-04T01:41:53.096Z,9.661485
2022-09-04T01:42:53.080Z,9.661408
2022-09-04T01:43:53.106Z,9.661479
2022-09-04T01:44:53.074Z,9.661461
2022-09-04T01:45:53.295Z,9.661425
2022-09-04T01:46:53.060Z,9.661471
2022-09-04T01:47:53.059Z,9.661519
2022-09-04T01:48:53.060Z,9.661476
2022-09-04T01:49:53.055Z,9.661486
2022-09-04T01:50:53.045Z,9.661474
2022-09-04T01:51:53.034Z,9.661427
2022-09-04T01:52:53.036Z,9.661427
2022-09-04T01:53:53.059Z,9.661448
2022-09-04T01:54:53.000Z,9.661469
2022-09-04T01:55:53.014Z,9.661458
2022-09-04T01:56:52.994Z,9.661489
2022-09-04T01:57:53.003Z,9.661542
2022-09-04T01:58:52.994Z,9.661512
2022-09-04T01:59:53.807Z,9.661476
2022-09-04T02:00:53.682Z,9.661509
2022-09-04T02:01:53.987Z,9.661444
2022-09-04T02:02:53.394Z,9.661482
2022-09-04T02:03:52.953Z,9.661508
2022-09-04T02:04:52.985Z,9.661449
2022-09-04T02:05:52.958Z,9.661449
2022-09-04T02:06:52.931Z,9.661424
2022-09-04T02:07:52.931Z,9.661526
2022-09-04T02:08:52.938Z,9.661473
2022-09-04T02:09:54.011Z,9.661584
2022-09-04T02:10:53.008Z,9.661626
2022-09-04T02:11:57.068Z,9.661691
2022-09-04T02:12:52.898Z,9.661664
2022-09-04T02:13:52.902Z,9.661580
2022-09-04T02:14:52.899Z,9.661520
2022-09-04T02:15:52.897Z,9.661466
2022-09-04T02:16:52.869Z,9.661528
2022-09-04T02:17:52.875Z,9.661539
2022-09-04T02:18:52.865Z,9.661603
2022-09-04T02:19:52.858Z,9.661386
2022-09-04T02:20:52.842Z,9.661494
2022-09-04T02:21:52.961Z,9.661475
2022-09-04T02:22:52.822Z,9.661469
2022-09-04T02:23:52.835Z,9.661525
2022-09-04T02:24:52.844Z,9.661521
2022-09-04T02:25:52.824Z,9.661503
2022-09-04T02:26:52.846Z,9.661480
2022-09-04T02:27:52.811Z,9.661554
2022-09-04T02:28:52.820Z,9.661543
2022-09-04T02:29:52.799Z,9.661559
2022-09-04T02:30:54.529Z,9.661397
2022-09-04T02:31:52.857Z,9.661625
2022-09-04T02:32:52.821Z,9.661534
2022-09-04T02:33:52.777Z,9.661579
2022-09-04T02:34:52.762Z,9.661506
2022-09-04T02:35:52.753Z,9.661498
2022-09-04T02:36:52.748Z,9.661489
2022-09-04T02:37:52.784Z,9.661471
2022-09-04T02:38:52.778Z,9.661488
2022-09-04T02:39:52.834Z,9.661795
2022-09-04T02:40:52.721Z,9.661592
2022-09-04T02:41:52.738Z,9.661657
2022-09-04T02:42:52.731Z,9.661667
2022-09-04T02:43:52.761Z,9.661497
2022-09-04T02:44:52.707Z,9.661423
2022-09-04T02:45:52.686Z,9.661568
2022-09-04T02:46:52.752Z,9.661525
2022-09-04T02:47:52.697Z,9.661563
2022-09-04T02:48:52.712Z,9.661508
2022-09-04T02:49:52.669Z,9.661518
2022-09-04T02:50:52.664Z,9.661456
2022-09-04T02:51:52.672Z,9.661498
2022-09-04T02:52:52.655Z,9.661406
2022-09-04T02:53:52.642Z,9.661531
2022-09-04T02:54:52.774Z,9.661632
2022-09-04T02:55:52.640Z,9.661613
2022-09-04T02:56:52.637Z,9.661675
2022-09-04T02:57:52.616Z,9.661644
2022-09-04T02:58:52.615Z,9.661596
2022-09-04T02:59:52.627Z,9.661688
2022-09-04T03:00:52.695Z,9.661771
2022-09-04T03:01:52.657Z,9.661768
2022-09-04T03:02:52.597Z,9.661695
2022-09-04T03:03:52.586Z,9.661551
2022-09-04T03:04:52.583Z,9.661776
2022-09-04T03:05:52.689Z,9.661709
2022-09-04T03:06:52.584Z,9.661777
2022-09-04T03:07:52.551Z,9.661756
2022-09-04T03:08:53.447Z,9.661734
2022-09-04T03:09:52.540Z,9.661613
2022-09-04T03:10:52.651Z,9.661647
2022-09-04T03:11:52.526Z,9.661551
2022-09-04T03:12:52.532Z,9.661657
2022-09-04T03:13:52.510Z,9.662079
2022-09-04T03:14:52.524Z,9.661841
2022-09-04T03:15:52.565Z,9.661469
2022-09-04T03:16:52.507Z,9.661554
2022-09-04T03:17:53.353Z,9.661431
2022-09-04T03:18:52.474Z,9.661653
2022-09-04T03:19:52.485Z,9.661515
2022-09-04T03:20:52.471Z,9.661548
2022-09-04T03:21:52.583Z,9.661538
2022-09-04T03:22:52.460Z,9.661543
2022-09-04T03:23:52.478Z,9.661549
2022-09-04T03:24:52.453Z,9.661444
2022-09-04T03:25:52.447Z,9.661584
2022-09-04T03:26:52.440Z,9.661567
2022-09-04T03:27:52.449Z,9.661567
2022-09-04T03:28:52.432Z,9.661533
2022-09-04T03:29:52.417Z,9.661367
2022-09-04T03:30:52.429Z,9.661407
2022-09-04T03:31:52.431Z,9.661464
2022-09-04T03:32:52.511Z,9.661444
2022-09-04T03:33:52.388Z,9.661546
2022-09-04T03:34:52.363Z,9.661574
2022-09-04T03:35:52.373Z,9.661554
2022-09-04T03:36:52.372Z,9.661570
2022-09-04T03:37:52.356Z,9.661605
2022-09-04T03:38:52.404Z,9.661480
2022-09-04T03:39:52.385Z,9.661497
2022-09-04T03:40:52.350Z,9.661432
2022-09-04T03:41:52.340Z,9.661549
2022-09-04T03:42:52.317Z,9.661566
2022-09-04T03:43:52.353Z,9.661485
2022-09-04T03:44:52.338Z,9.661529
2022-09-04T03:45:52.308Z,9.661459
2022-09-04T03:46:52.345Z,9.661487
2022-09-04T03:47:52.292Z,9.661538
2022-09-04T03:48:52.311Z,9.661438
2022-09-04T03:49:52.387Z,9.661551
2022-09-04T03:50:52.275Z,9.661502
2022-09-04T03:51:52.270Z,9.661466
2022-09-04T03:52:52.261Z,9.661636
2022-09-04T03:53:52.263Z,9.661593
2022-09-04T03:54:52.283Z,9.661546
2022-09-04T03:55:52.255Z,9.661380
2022-09-04T03:56:52.245Z,9.661478
2022-09-04T03:57:52.233Z,9.661482
2022-09-04T03:58:52.222Z,9.661551
2022-09-04T03:59:52.212Z,9.661434
2022-09-04T04:00:52.285Z,9.661443
2022-09-04T04:01:52.207Z,9.661372
2022-09-04T04:02:52.276Z,9.661467
2022-09-04T04:03:52.210Z,9.661448
2022-09-04T04:04:52.213Z,9.661459
2022-09-04T04:05:52.189Z,9.661417
2022-09-04T04:06:52.187Z,9.661493
2022-09-04T04:07:52.174Z,9.661590
2022-09-04T04:08:52.163Z,9.661584
2022-09-04T04:09:52.196Z,9.661526
2022-09-04T04:10:52.141Z,9.661506
2022-09-04T04:11:52.175Z,9.661566
2022-09-04T04:12:52.145Z,9.661559
2022-09-04T04:13:52.128Z,9.661526
2022-09-04T04:14:52.114Z,9.661543
2022-09-04T04:15:52.154Z,9.661498
2022-09-04T04:16:56.123Z,9.661524
2022-09-04T04:17:52.120Z,9.661545
2022-09-04T04:18:52.094Z,9.661666
2022-09-04T04:19:52.099Z,9.661526
2022-09-04T04:20:52.090Z,9.661492
2022-09-04T04:21:52.077Z,9.661518
2022-09-04T04:22:52.119Z,9.661564
2022-09-04T04:23:52.084Z,9.661519
2022-09-04T04:24:52.063Z,9.661450
2022-09-04T04:25:52.618Z,9.661536
2022-09-04T04:26:54.820Z,9.661685
2022-09-04T04:27:52.082Z,9.661498
2022-09-04T04:28:52.022Z,9.661406
2022-09-04T04:29:53.040Z,9.661447
2022-09-04T04:30:52.030Z,9.661520
2022-09-04T04:31:52.049Z,9.661516
2022-09-04T04:32:52.001Z,9.661429
2022-09-04T04:33:52.117Z,9.661457
2022-09-04T04:34:51.996Z,9.661461
2022-09-04T04:35:51.968Z,9.661428
2022-09-04T04:36:52.991Z,9.661389
2022-09-04T04:37:51.974Z,9.661427
2022-09-04T04:38:52.097Z,9.661417
2022-09-04T04:39:51.985Z,9.661542
2022-09-04T04:40:51.973Z,9.661522
2022-09-04T04:41:51.954Z,9.661444
2022-09-04T04:42:51.950Z,9.661347
2022-09-04T04:43:51.931Z,9.661403
2022-09-04T04:44:51.960Z,9.661548
2022-09-04T04:45:51.928Z,9.661434
2022-09-04T04:46:51.975Z,9.661220
2022-09-04T04:47:51.933Z,9.661445
2022-09-04T04:48:51.924Z,9.661456
2022-09-04T04:49:51.936Z,9.661456
2022-09-04T04:50:51.904Z,9.661433
2022-09-04T04:51:51.890Z,9.661407
2022-09-04T04:52:51.907Z,9.661432
2022-09-04T04:53:51.878Z,9.661409
2022-09-04T04:54:51.876Z,9.661430
2022-09-04T04:55:51.908Z,9.661360
2022-09-04T04:56:51.883Z,9.661459
2022-09-04T04:57:51.867Z,9.661408
2022-09-04T04:58:51.906Z,9.661484
2022-09-04T04:59:51.849Z,9.661510
2022-09-04T05:00:52.551Z,9.661390
2022-09-04T05:01:51.926Z,9.661526
2022-09-04T05:02:51.964Z,9.661559
2022-09-04T05:03:51.826Z,9.661502
2022-09-04T05:04:51.821Z,9.661462
2022-09-04T05:05:51.811Z,9.661459
2022-09-04T05:06:51.901Z,9.661467
2022-09-04T05:07:51.812Z,9.661374
2022-09-04T05:08:51.788Z,9.661359
2022-09-04T05:09:51.804Z,9.661366
2022-09-04T05:10:51.779Z,9.661389
2022-09-04T05:11:51.892Z,9.661316
2022-09-04T05:12:51.764Z,9.661352
2022-09-04T05:13:52.863Z,9.661319
2022-09-04T05:14:51.760Z,9.661376
2022-09-04T05:16:08.374Z,9.661391
2022-09-04T05:16:55.708Z,9.661468
2022-09-04T05:17:52.733Z,9.661366
2022-09-04T05:18:51.730Z,9.661455
2022-09-04T05:19:52.422Z,9.661374
2022-09-04T05:20:51.753Z,9.661416
2022-09-04T05:21:51.706Z,9.661457
2022-09-04T05:22:51.748Z,9.661543
2022-09-04T05:23:51.709Z,9.661653
2022-09-04T05:24:51.913Z,9.661456
2022-09-04T05:25:51.720Z,9.661431
2022-09-04T05:26:51.672Z,9.661470
2022-09-04T05:27:51.798Z,9.661467
2022-09-04T05:28:51.677Z,9.661394
2022-09-04T05:29:51.671Z,9.661482
2022-09-04T05:30:51.710Z,9.661545
2022-09-04T05:31:51.654Z,9.661433
2022-09-04T05:32:51.667Z,9.661245
2022-09-04T05:33:51.668Z,9.661297
2022-09-04T05:34:51.646Z,9.661391
2022-09-04T05:35:53.134Z,9.661366
2022-09-04T05:36:51.621Z,9.661474
2022-09-04T05:37:51.611Z,9.661466
2022-09-04T05:38:51.650Z,9.661333
2022-09-04T05:39:51.673Z,9.661472
2022-09-04T05:40:51.605Z,9.661486
2022-09-04T05:41:51.625Z,9.661523
2022-09-04T05:42:51.586Z,9.661514
2022-09-04T05:43:51.593Z,9.661533
2022-09-04T05:44:51.603Z,9.661665
2022-09-04T05:45:51.576Z,9.661544
2022-09-04T05:46:51.987Z,9.661584
2022-09-04T05:47:51.553Z,9.661418
2022-09-04T05:48:51.554Z,9.661264
2022-09-04T05:49:51.555Z,9.661584
2022-09-04T05:50:51.540Z,9.661711
2022-09-04T05:51:51.536Z,9.661705
2022-09-04T05:52:51.565Z,9.661802
2022-09-04T05:53:51.505Z,9.661699
2022-09-04T05:54:51.505Z,9.661710
2022-09-04T05:55:51.537Z,9.661555
2022-09-04T05:56:51.514Z,9.661498
2022-09-04T05:57:51.495Z,9.661445
2022-09-04T05:58:51.485Z,9.661481
2022-09-04T05:59:51.506Z,9.661475
2022-09-04T06:00:51.593Z,9.661423
2022-09-04T06:01:52.364Z,9.661518
2022-09-04T06:02:52.523Z,9.661527
2022-09-04T06:03:51.469Z,9.661523
2022-09-04T06:04:51.442Z,9.661459
2022-09-04T06:05:51.440Z,9.661454
2022-09-04T06:06:51.473Z,9.661523
2022-09-04T06:07:51.425Z,9.661535
2022-09-04T06:08:51.421Z,9.661571
2022-09-04T06:09:51.431Z,9.661545
2022-09-04T06:10:51.403Z,9.661557
2022-09-04T06:11:51.526Z,9.661532
2022-09-04T06:12:51.403Z,9.661505
2022-09-04T06:13:51.424Z,9.661508
2022-09-04T06:14:51.392Z,9.661515
2022-09-04T06:15:51.423Z,9.661504
2022-09-04T06:16:51.376Z,9.661468
2022-09-04T06:17:51.472Z,9.661434
2022-09-04T06:18:51.350Z,9.661471
2022-09-04T06:19:51.361Z,9.661442
2022-09-04T06:20:51.392Z,9.661474
2022-09-04T06:21:51.361Z,9.661440
2022-09-04T06:22:55.047Z,9.661453
2022-09-04T06:23:52.313Z,9.661448
2022-09-04T06:24:51.331Z,9.661459
2022-09-04T06:25:51.332Z,9.661440
2022-09-04T06:26:51.327Z,9.661408
2022-09-04T06:27:51.310Z,9.661489
2022-09-04T06:28:51.412Z,9.661494
2022-09-04T06:29:51.304Z,9.661552
2022-09-04T06:30:51.340Z,9.661528
2022-09-04T06:31:51.280Z,9.661404
2022-09-04T06:32:51.269Z,9.661215
2022-09-04T06:33:51.368Z,9.661299
2022-09-04T06:34:51.255Z,9.661394
2022-09-04T06:35:51.261Z,9.661410
2022-09-04T06:36:51.263Z,9.661326
2022-09-04T06:37:51.247Z,9.661410
2022-09-04T06:38:51.238Z,9.661407
2022-09-04T06:39:51.306Z,9.661395
2022-09-04T06:40:51.219Z,9.661366
2022-09-04T06:41:51.200Z,9.661382
2022-09-04T06:42:51.225Z,9.661439
2022-09-04T06:43:51.203Z,9.661498
2022-09-04T06:44:51.246Z,9.661462
2022-09-04T06:45:51.188Z,9.661397
2022-09-04T06:46:51.387Z,9.661454
2022-09-04T06:47:51.239Z,9.661494
2022-09-04T06:48:51.170Z,9.661513
2022-09-04T06:49:51.143Z,9.661427
2022-09-04T06:50:51.190Z,9.661427
2022-09-04T06:51:51.183Z,9.661463
2022-09-04T06:52:51.143Z,9.661334
2022-09-04T06:53:51.127Z,9.661574
2022-09-04T06:54:51.124Z,9.661432
2022-09-04T06:55:51.235Z,9.661248
2022-09-04T06:56:52.145Z,9.661477
2022-09-04T06:57:51.108Z,9.661476
2022-09-04T06:58:51.105Z,9.661501
2022-09-04T06:59:51.115Z,9.661419
2022-09-04T07:00:52.010Z,9.661452
2022-09-04T07:01:51.262Z,9.661488
2022-09-04T07:02:51.203Z,9.661446
2022-09-04T07:03:51.119Z,9.661367
2022-09-04T07:04:51.084Z,9.661418
2022-09-04T07:05:51.094Z,9.661476
2022-09-04T07:06:51.084Z,9.661420
2022-09-04T07:07:51.063Z,9.661464
2022-09-04T07:08:51.059Z,9.661417
2022-09-04T07:09:51.038Z,9.661433
2022-09-04T07:10:51.029Z,9.661426
2022-09-04T07:11:51.025Z,9.661448
2022-09-04T07:12:51.129Z,9.661420
2022-09-04T07:13:51.027Z,9.661445
2022-09-04T07:14:51.013Z,9.661415
2022-09-04T07:15:51.051Z,9.661421
2022-09-04T07:16:51.001Z,9.661375
2022-09-04T07:17:51.803Z,9.661399
2022-09-04T07:18:50.983Z,9.661392
2022-09-04T07:19:50.988Z,9.661383
2022-09-04T07:20:50.979Z,9.661486
2022-09-04T07:21:50.971Z,9.661668
2022-09-04T07:22:50.966Z,9.661602
2022-09-04T07:23:50.969Z,9.661722
2022-09-04T07:24:50.950Z,9.661580
2022-09-04T07:25:50.938Z,9.661532
2022-09-04T07:26:50.932Z,9.661490
2022-09-04T07:27:50.940Z,9.661451
2022-09-04T07:28:50.928Z,9.661429
2022-09-04T07:29:50.918Z,9.661376
2022-09-04T07:30:50.916Z,9.661463
2022-09-04T07:31:50.958Z,9.661509
2022-09-04T07:32:50.932Z,9.661449
2022-09-04T07:33:50.903Z,9.661484
2022-09-04T07:34:50.888Z,9.661425
2022-09-04T07:35:50.903Z,9.661409
2022-09-04T07:36:50.923Z,9.661194
2022-09-04T07:37:50.886Z,9.660839
2022-09-04T07:38:51.273Z,9.661025
2022-09-04T07:39:50.931Z,9.661078
2022-09-04T07:40:50.864Z,9.661440
2022-09-04T07:41:50.879Z,9.661519
2022-09-04T07:42:50.853Z,9.661798
2022-09-04T07:43:54.681Z,9.661935
2022-09-04T07:44:52.877Z,9.661865
2022-09-04T07:45:51.031Z,9.661659
2022-09-04T07:46:50.840Z,9.661978
2022-09-04T07:47:50.857Z,9.661572
2022-09-04T07:48:50.895Z,9.661620
2022-09-04T07:49:50.969Z,9.661610
2022-09-04T07:50:50.883Z,9.661799
2022-09-04T07:51:50.877Z,9.662159
2022-09-04T07:52:50.910Z,9.661971
2022-09-04T07:53:50.918Z,9.661601
2022-09-04T07:54:50.841Z,9.661654
2022-09-04T07:55:50.946Z,9.661414
2022-09-04T07:56:51.529Z,9.661495
2022-09-04T07:57:50.812Z,9.661724
2022-09-04T07:58:50.809Z,9.661574
2022-09-04T07:59:50.774Z,9.661358
2022-09-04T08:00:50.765Z,9.661438
2022-09-04T08:01:50.788Z,9.661440
2022-09-04T08:02:50.758Z,9.661599
2022-09-04T08:03:54.389Z,9.661494
2022-09-04T08:04:50.785Z,9.661389
2022-09-04T08:05:50.722Z,9.661385
2022-09-04T08:06:50.728Z,9.661388
2022-09-04T08:07:50.735Z,9.661397
2022-09-04T08:08:50.711Z,9.661390
2022-09-04T08:09:50.708Z,9.661341
2022-09-04T08:10:50.701Z,9.661366
2022-09-04T08:11:50.710Z,9.661512
2022-09-04T08:12:50.917Z,9.661462
2022-09-04T08:13:51.700Z,9.661489
2022-09-04T08:14:50.665Z,9.661353
2022-09-04T08:15:50.721Z,9.661305
2022-09-04T08:16:50.659Z,9.661380
2022-09-04T08:17:50.667Z,9.661376
2022-09-04T08:18:50.668Z,9.661347
2022-09-04T08:19:50.651Z,9.661369
2022-09-04T08:20:50.644Z,9.661352
2022-09-04T08:21:50.632Z,9.661393
2022-09-04T08:22:50.645Z,9.661326
2022-09-04T08:23:50.646Z,9.661282
2022-09-04T08:24:50.627Z,9.661266
2022-09-04T08:25:50.601Z,9.661311
2022-09-04T08:26:50.616Z,9.661402
2022-09-04T08:27:50.619Z,9.661381
2022-09-04T08:28:50.606Z,9.661358
2022-09-04T08:29:50.602Z,9.661304
2022-09-04T08:30:50.694Z,9.661295
2022-09-04T08:31:50.602Z,9.661251
2022-09-04T08:32:50.590Z,9.661281
2022-09-04T08:33:50.564Z,9.661246
2022-09-04T08:34:50.564Z,9.661237
2022-09-04T08:35:50.552Z,9.661309
2022-09-04T08:36:50.555Z,9.661329
2022-09-04T08:37:50.646Z,9.661313
2022-09-04T08:38:50.561Z,9.661366
2022-09-04T08:39:50.561Z,9.661315
2022-09-04T08:40:52.271Z,9.661344
2022-09-04T08:41:50.546Z,9.661304
2022-09-04T08:42:50.518Z,9.661161
2022-09-04T08:43:50.523Z,9.661211
2022-09-04T08:44:50.512Z,9.661532
2022-09-04T08:45:50.624Z,9.661550
2022-09-04T08:46:50.556Z,9.661672
2022-09-04T08:47:50.495Z,9.661437
2022-09-04T08:48:50.556Z,9.661488
2022-09-04T08:49:50.478Z,9.661503
2022-09-04T08:50:50.479Z,9.661476
2022-09-04T08:51:50.487Z,9.661462
2022-09-04T08:52:50.475Z,9.661407
2022-09-04T08:53:50.462Z,9.661424
2022-09-04T08:54:50.520Z,9.661297
2022-09-04T08:55:50.454Z,9.661368
2022-09-04T08:56:50.459Z,9.661298
2022-09-04T08:57:50.469Z,9.661448
2022-09-04T08:58:50.434Z,9.661465
2022-09-04T08:59:50.434Z,9.661293
2022-09-04T09:00:50.424Z,9.661359
2022-09-04T09:01:50.470Z,9.661368
2022-09-04T09:02:50.432Z,9.661616
2022-09-04T09:03:50.419Z,9.661755
2022-09-04T09:04:50.404Z,9.661551
2022-09-04T09:05:50.418Z,9.661449
2022-09-04T09:06:50.381Z,9.661325
2022-09-04T09:07:50.385Z,9.661466
2022-09-04T09:08:50.389Z,9.661618
2022-09-04T09:09:50.371Z,9.661758
2022-09-04T09:10:50.397Z,9.661521
2022-09-04T09:11:50.369Z,9.661388
2022-09-04T09:12:50.361Z,9.661410
2022-09-04T09:13:50.351Z,9.661412
2022-09-04T09:14:50.343Z,9.661574
2022-09-04T09:15:50.342Z,9.661695
2022-09-04T09:16:50.508Z,9.661756
2022-09-04T09:17:50.350Z,9.661602
2022-09-04T09:18:50.326Z,9.661643
2022-09-04T09:19:50.324Z,9.661683
2022-09-04T09:20:50.328Z,9.661882
2022-09-04T09:21:50.329Z,9.661730
2022-09-04T09:22:50.292Z,9.661575
2022-09-04T09:23:50.308Z,9.661448
2022-09-04T09:24:50.297Z,9.661446
2022-09-04T09:25:50.284Z,9.661537
2022-09-04T09:26:50.283Z,9.661595
2022-09-04T09:27:50.385Z,9.661498
2022-09-04T09:28:50.281Z,9.661602
2022-09-04T09:29:50.276Z,9.661681
2022-09-04T09:30:50.305Z,9.661541
2022-09-04T09:31:50.263Z,9.661637
2022-09-04T09:32:50.275Z,9.661604
2022-09-04T09:33:50.245Z,9.661604
2022-09-04T09:34:50.241Z,9.661585
2022-09-04T09:35:50.246Z,9.661729
2022-09-04T09:36:50.240Z,9.661868
2022-09-04T09:37:50.232Z,9.661880
2022-09-04T09:38:50.246Z,9.661846
2022-09-04T09:39:50.310Z,9.661633
2022-09-04T09:40:50.232Z,9.661878
2022-09-04T09:41:50.254Z,9.661994
2022-09-04T09:42:50.215Z,9.661853
2022-09-04T09:43:50.320Z,9.661768
2022-09-04T09:44:50.211Z,9.661829
2022-09-04T09:45:50.251Z,9.661768
2022-09-04T09:46:50.189Z,9.661509
2022-09-04T09:47:50.205Z,9.661789
2022-09-04T09:48:50.199Z,9.661931
2022-09-04T09:49:50.196Z,9.661835
2022-09-04T09:50:50.181Z,9.661729
2022-09-04T09:51:50.161Z,9.661901
2022-09-04T09:52:50.175Z,9.661860
2022-09-04T09:53:50.162Z,9.661907
2022-09-04T09:54:50.270Z,9.661752
2022-09-04T09:55:50.153Z,9.661881
2022-09-04T09:56:53.678Z,9.661798
2022-09-04T09:57:50.149Z,9.661901
2022-09-04T09:58:50.134Z,9.661784
2022-09-04T09:59:50.120Z,9.661965
2022-09-04T10:00:50.173Z,9.662190
2022-09-04T10:01:50.107Z,9.662038
2022-09-04T10:02:50.236Z,9.661952
2022-09-04T10:03:50.107Z,9.661944
2022-09-04T10:04:50.115Z,9.661887
2022-09-04T10:05:50.130Z,9.661830
2022-09-04T10:06:50.107Z,9.661713
2022-09-04T10:07:50.085Z,9.661749
2022-09-04T10:08:50.082Z,9.661757
2022-09-04T10:09:50.085Z,9.661631
2022-09-04T10:10:50.073Z,9.661749
2022-09-04T10:11:51.204Z,9.661645
2022-09-04T10:12:50.080Z,9.661767
2022-09-04T10:13:50.062Z,9.661813
2022-09-04T10:14:50.533Z,9.661718
2022-09-04T10:15:50.062Z,9.661712
2022-09-04T10:16:50.108Z,9.661695
2022-09-04T10:17:50.066Z,9.661695
2022-09-04T10:18:50.050Z,9.661676
2022-09-04T10:19:50.052Z,9.661642
2022-09-04T10:20:50.023Z,9.661768
2022-09-04T10:21:50.017Z,9.661781
2022-09-04T10:23:22.119Z,9.661776
2022-09-04T10:23:50.023Z,9.661718
2022-09-04T10:24:50.005Z,9.661801
2022-09-04T10:25:49.997Z,9.661680
2022-09-04T10:26:49.982Z,9.661619
2022-09-04T10:27:49.979Z,9.661636
2022-09-04T10:28:50.080Z,9.661681
2022-09-04T10:29:49.975Z,9.661523
2022-09-04T10:30:50.053Z,9.661622
2022-09-04T10:31:49.946Z,9.661656
2022-09-04T10:32:49.947Z,9.661622
2022-09-04T10:33:50.072Z,9.661636
2022-09-04T10:34:49.952Z,9.661612
2022-09-04T10:35:49.941Z,9.661547
2022-09-04T10:36:49.934Z,9.661625
2022-09-04T10:37:49.922Z,9.661547
2022-09-04T10:38:49.935Z,9.661592
2022-09-04T10:39:49.973Z,9.661613
2022-09-04T10:40:51.548Z,9.661480
2022-09-04T10:41:49.903Z,9.661423
2022-09-04T10:42:49.919Z,9.661811
2022-09-04T10:43:49.897Z,9.661567
2022-09-04T10:44:50.001Z,9.661386
2022-09-04T10:45:49.953Z,9.661466
2022-09-04T10:46:49.865Z,9.661479
2022-09-04T10:47:49.888Z,9.661568
2022-09-04T10:48:49.864Z,9.661630
2022-09-04T10:49:49.849Z,9.661458
2022-09-04T10:50:49.997Z,9.661679
2022-09-04T10:51:49.854Z,9.661914
2022-09-04T10:52:49.841Z,9.661737
2022-09-04T10:53:49.850Z,9.661849
2022-09-04T10:54:49.840Z,9.661712
2022-09-04T10:55:49.938Z,9.661460
2022-09-04T10:56:49.817Z,9.661448
2022-09-04T10:57:49.815Z,9.661222
2022-09-04T10:58:49.816Z,9.661818
2022-09-04T10:59:49.803Z,9.661862
2022-09-04T11:00:49.851Z,9.661443
2022-09-04T11:01:49.843Z,9.661613
2022-09-04T11:02:49.795Z,9.661438
2022-09-04T11:03:49.799Z,9.661864
2022-09-04T11:04:49.782Z,9.661632
2022-09-04T11:05:49.776Z,9.661560
2022-09-04T11:06:49.871Z,9.661592
2022-09-04T11:07:49.779Z,9.661453
2022-09-04T11:08:49.751Z,9.661573
2022-09-04T11:09:49.769Z,9.661696
2022-09-04T11:10:49.747Z,9.661652
2022-09-04T11:11:49.750Z,9.661580
2022-09-04T11:12:49.772Z,9.661570
2022-09-04T11:13:51.705Z,9.661536
2022-09-04T11:14:50.717Z,9.661542
2022-09-04T11:15:49.735Z,9.661510
2022-09-04T11:16:50.621Z,9.661551
2022-09-04T11:17:49.810Z,9.661556
2022-09-04T11:18:49.704Z,9.661493
2022-09-04T11:19:49.699Z,9.661530
2022-09-04T11:20:49.681Z,9.661562
2022-09-04T11:21:49.687Z,9.661592
2022-09-04T11:22:49.688Z,9.661488
2022-09-04T11:23:49.707Z,9.661525
2022-09-04T11:24:49.660Z,9.661530
2022-09-04T11:25:49.677Z,9.661614
2022-09-04T11:26:49.663Z,9.661573
2022-09-04T11:27:49.673Z,9.661538
2022-09-04T11:28:49.739Z,9.661547
2022-09-04T11:29:49.651Z,9.661443
2022-09-04T11:30:49.627Z,9.661496
2022-09-04T11:31:49.684Z,9.661501
2022-09-04T11:32:49.636Z,9.661433
2022-09-04T11:33:49.629Z,9.661489
2022-09-04T11:34:49.655Z,9.661408
2022-09-04T11:35:49.612Z,9.661477
2022-09-04T11:36:49.592Z,9.661528
2022-09-04T11:37:49.610Z,9.661665
2022-09-04T11:38:49.643Z,9.661593
2022-09-04T11:39:49.677Z,9.661566
2022-09-04T11:40:49.571Z,9.661550
2022-09-04T11:41:49.580Z,9.661609
2022-09-04T11:42:49.572Z,9.661507
2022-09-04T11:43:49.562Z,9.661538
2022-09-04T11:44:49.556Z,9.661504